Sheddsville, Vermont
Current Conditions -  °F | °C
As of 6:54 AM on Tuesday 27 Jan 2015 (Local Time) from KVSF Reporting Station
Light Snow Light Snow  
Wind Chill: -2°   Ceiling: 1400
Heat Index: 12°   Visibility: 0.75mi
Dew Point:   Wind: 12mph
Humidity: 80%   Direction: 360°N
Pressure: 29.78"   Gusts: 18mph
Location:  43.4897°N, 72.4482°W
Report Text: KVSF 271154Z AUTO 36010G16KT 3/4SM -SN VV014 M11/M14 A2978 RMK AO2 SLP094 P0001 60006 70006 T11111139 11083 21111 56027 TSNO
Loading
Personal Weather Stations






























Interactive Weather Map New forecast layout! Learn more

10-Day Weather Forecast

Advertisements
Track Severe Weather on mobile